createdAt,value
2018-09-18T00:00:30.093Z,55.70
2018-09-18T00:03:32.997Z,56.60
2018-09-18T00:06:35.893Z,56.10
2018-09-18T00:09:38.827Z,56.80
2018-09-18T00:12:41.744Z,56.60
2018-09-18T00:15:44.718Z,56.80
2018-09-18T00:18:47.703Z,56.60
2018-09-18T00:21:50.612Z,56.20
2018-09-18T00:24:53.564Z,56.90
2018-09-18T00:27:56.512Z,57.30
2018-09-18T00:30:59.473Z,56.60
2018-09-18T00:34:02.424Z,57.00
2018-09-18T00:37:05.322Z,56.70
2018-09-18T00:40:08.288Z,56.90
2018-09-18T00:43:11.251Z,57.20
2018-09-18T00:46:14.166Z,57.70
2018-09-18T00:49:17.111Z,56.20
2018-09-18T00:52:20.000Z,56.90
2018-09-18T00:55:22.936Z,56.30
2018-09-18T00:58:25.956Z,57.20
2018-09-18T01:01:28.887Z,57.50
2018-09-18T01:04:31.848Z,55.10
2018-09-18T01:07:34.831Z,56.30
2018-09-18T01:10:37.801Z,55.20
2018-09-18T01:13:40.817Z,54.20
2018-09-18T01:16:43.741Z,54.90
2018-09-18T01:19:46.652Z,53.70
2018-09-18T01:22:49.546Z,53.80
2018-09-18T01:25:52.512Z,49.70
2018-09-18T01:28:55.469Z,49.90
2018-09-18T01:31:58.417Z,49.80
2018-09-18T01:35:01.337Z,48.80
2018-09-18T01:38:04.351Z,49.00
2018-09-18T01:41:07.301Z,48.80
2018-09-18T01:44:10.328Z,49.20
2018-09-18T01:47:13.300Z,47.80
2018-09-18T01:50:16.280Z,47.40
2018-09-18T01:53:19.256Z,48.20
2018-09-18T01:56:22.225Z,47.60
2018-09-18T01:59:25.149Z,47.30
2018-09-18T02:02:28.072Z,47.40
2018-09-18T02:05:30.994Z,47.80
2018-09-18T02:08:33.894Z,48.30
2018-09-18T02:11:36.845Z,47.60
2018-09-18T02:14:39.779Z,47.20
2018-09-18T02:17:42.696Z,47.30
2018-09-18T02:20:45.612Z,47.10
2018-09-18T02:23:48.485Z,47.60
2018-09-18T02:26:51.421Z,47.60
2018-09-18T02:29:54.358Z,47.30
2018-09-18T02:32:57.250Z,48.20
2018-09-18T02:36:00.177Z,47.80
2018-09-18T02:39:04.941Z,48.10
2018-09-18T02:42:07.897Z,47.70
2018-09-18T02:45:10.801Z,48.00
2018-09-18T02:48:13.762Z,49.00
2018-09-18T02:51:16.673Z,48.30
2018-09-18T02:54:19.586Z,47.80
2018-09-18T02:57:22.521Z,47.80
2018-09-18T03:00:25.489Z,47.50
2018-09-18T03:03:28.484Z,47.60
2018-09-18T03:06:31.452Z,47.60
2018-09-18T03:09:34.385Z,47.30
2018-09-18T03:12:37.297Z,47.90
2018-09-18T03:15:40.185Z,47.30
2018-09-18T03:18:43.192Z,47.60
2018-09-18T03:21:46.121Z,47.20
2018-09-18T03:24:49.053Z,46.90
2018-09-18T03:27:51.943Z,46.70
2018-09-18T03:30:54.846Z,46.60
2018-09-18T03:33:57.772Z,46.70
2018-09-18T03:37:00.673Z,46.50
2018-09-18T03:40:04.039Z,46.50
2018-09-18T03:43:06.999Z,46.90
2018-09-18T03:46:09.960Z,46.40
2018-09-18T03:49:12.873Z,46.40
2018-09-18T03:52:15.948Z,46.50
2018-09-18T03:55:18.877Z,46.70
2018-09-18T03:58:21.790Z,47.20
2018-09-18T04:01:24.720Z,47.00
2018-09-18T04:04:27.738Z,47.00
2018-09-18T04:07:30.704Z,46.80
2018-09-18T04:10:33.637Z,47.10
2018-09-18T04:13:36.595Z,46.80
2018-09-18T04:16:39.565Z,47.00
2018-09-18T04:19:42.585Z,47.30
2018-09-18T04:22:45.533Z,47.20
2018-09-18T04:25:48.625Z,47.20
2018-09-18T04:28:51.545Z,47.20
2018-09-18T04:31:54.451Z,47.30
2018-09-18T04:34:57.369Z,47.10
2018-09-18T04:38:00.266Z,47.50
2018-09-18T04:41:03.229Z,47.70
2018-09-18T04:44:06.601Z,48.40
2018-09-18T04:47:09.541Z,48.00
2018-09-18T04:50:12.485Z,48.10
2018-09-18T04:53:15.448Z,49.10
2018-09-18T04:56:18.366Z,48.30
2018-09-18T04:59:21.245Z,48.00
2018-09-18T05:02:24.170Z,48.10
2018-09-18T05:05:27.066Z,48.20
2018-09-18T05:08:30.053Z,48.00
2018-09-18T05:11:32.988Z,48.20
2018-09-18T05:14:35.966Z,48.10
2018-09-18T05:17:39.218Z,48.80
2018-09-18T05:20:42.169Z,48.10
2018-09-18T05:23:45.138Z,48.20
2018-09-18T05:26:48.076Z,48.30
2018-09-18T05:29:51.011Z,48.10
2018-09-18T05:32:54.027Z,48.20
2018-09-18T05:35:56.995Z,48.30
2018-09-18T05:38:59.931Z,48.70
2018-09-18T05:42:02.958Z,48.60
2018-09-18T05:45:06.202Z,48.30
2018-09-18T05:48:11.475Z,48.80
2018-09-18T05:51:14.390Z,49.10
2018-09-18T05:54:17.304Z,48.60
2018-09-18T05:57:20.249Z,48.70
2018-09-18T06:00:23.288Z,48.80
2018-09-18T06:03:26.203Z,48.70
2018-09-18T06:06:29.152Z,48.90
2018-09-18T06:09:32.089Z,48.70
2018-09-18T06:12:35.262Z,48.70
2018-09-18T06:15:38.213Z,48.80
2018-09-18T06:18:41.461Z,49.00
2018-09-18T06:21:44.357Z,48.90
2018-09-18T06:24:47.281Z,49.00
2018-09-18T06:27:50.206Z,49.20
2018-09-18T06:30:53.301Z,49.10
2018-09-18T06:33:56.233Z,49.20
2018-09-18T06:36:59.201Z,48.90
2018-09-18T06:40:02.129Z,48.80
2018-09-18T06:43:05.400Z,49.10
2018-09-18T06:46:09.413Z,48.90
2018-09-18T06:49:12.329Z,49.10
2018-09-18T06:52:15.237Z,48.60
2018-09-18T06:55:18.194Z,48.50
2018-09-18T06:58:21.136Z,48.50
2018-09-18T07:01:24.042Z,48.30
2018-09-18T07:04:26.958Z,48.50
2018-09-18T07:07:29.993Z,48.70
2018-09-18T07:10:32.920Z,48.30
2018-09-18T07:13:36.419Z,48.30
2018-09-18T07:16:39.357Z,48.10
2018-09-18T07:19:42.346Z,48.30
2018-09-18T07:22:45.277Z,48.20
2018-09-18T07:25:48.197Z,48.10
2018-09-18T07:28:51.131Z,48.70
2018-09-18T07:31:54.051Z,48.00
2018-09-18T07:34:56.990Z,48.30
2018-09-18T07:37:59.909Z,47.90
2018-09-18T07:41:02.887Z,47.60
2018-09-18T07:44:05.934Z,48.60
2018-09-18T07:47:08.953Z,47.80
2018-09-18T07:50:12.125Z,48.30
2018-09-18T07:53:15.077Z,47.80
2018-09-18T07:56:18.026Z,47.60
2018-09-18T07:59:20.984Z,47.60
2018-09-18T08:02:23.938Z,47.70
2018-09-18T08:05:26.876Z,47.50
2018-09-18T08:08:29.817Z,47.70
2018-09-18T08:11:32.821Z,47.20
2018-09-18T08:14:35.777Z,46.50
2018-09-18T08:17:38.712Z,47.00
2018-09-18T08:20:41.606Z,46.70
2018-09-18T08:23:44.549Z,47.00
2018-09-18T08:26:47.540Z,46.40
2018-09-18T08:29:50.486Z,46.80
2018-09-18T08:32:53.453Z,46.20
2018-09-18T08:35:56.329Z,46.70
2018-09-18T08:38:59.349Z,46.50
2018-09-18T08:42:02.286Z,46.40
2018-09-18T08:45:05.329Z,45.80
2018-09-18T08:48:08.495Z,45.90
2018-09-18T08:51:11.456Z,45.70
2018-09-18T08:54:14.427Z,45.60
2018-09-18T08:57:18.148Z,46.30
2018-09-18T09:00:21.176Z,45.80
2018-09-18T09:03:24.218Z,45.60
2018-09-18T09:06:27.262Z,45.20
2018-09-18T09:09:30.146Z,45.10
2018-09-18T09:12:33.042Z,44.70
2018-09-18T09:15:35.998Z,44.60
2018-09-18T09:18:39.000Z,45.50
2018-09-18T09:21:41.908Z,46.00
2018-09-18T09:24:44.859Z,45.20
2018-09-18T09:27:47.904Z,44.70
2018-09-18T09:30:50.772Z,44.40
2018-09-18T09:33:53.707Z,43.90
2018-09-18T09:36:56.693Z,44.00
2018-09-18T09:39:59.586Z,43.80
2018-09-18T09:43:02.535Z,44.40
2018-09-18T09:46:05.506Z,44.50
2018-09-18T09:49:08.442Z,45.20
2018-09-18T09:52:11.435Z,44.40
2018-09-18T09:55:14.326Z,44.50
2018-09-18T09:58:17.306Z,44.30
2018-09-18T10:01:26.097Z,44.80
2018-09-18T10:04:29.047Z,45.30
2018-09-18T10:07:32.001Z,44.30
2018-09-18T10:10:34.975Z,44.40
2018-09-18T10:13:37.931Z,44.90
2018-09-18T10:16:40.857Z,44.90
2018-09-18T10:19:43.803Z,44.80
2018-09-18T10:22:46.741Z,44.40
2018-09-18T10:25:49.670Z,44.40
2018-09-18T10:28:53.026Z,44.20
2018-09-18T10:31:55.935Z,44.60
2018-09-18T10:34:58.913Z,44.60
2018-09-18T10:38:02.335Z,44.90
2018-09-18T10:41:05.537Z,44.10
2018-09-18T10:44:08.367Z,44.20
2018-09-18T10:47:11.366Z,45.00
2018-09-18T10:50:14.848Z,44.60
2018-09-18T10:53:17.770Z,45.50
2018-09-18T10:56:20.878Z,45.50
2018-09-18T10:59:24.229Z,44.80
2018-09-18T11:02:27.113Z,44.80
2018-09-18T11:05:29.994Z,45.90
2018-09-18T11:08:33.181Z,46.30
2018-09-18T11:11:36.153Z,47.30
2018-09-18T11:14:39.178Z,47.20
2018-09-18T11:17:42.028Z,47.30
2018-09-18T11:20:44.982Z,47.80
2018-09-18T11:23:47.901Z,47.60
2018-09-18T11:26:50.870Z,48.60
2018-09-18T11:29:53.811Z,46.60
2018-09-18T11:32:57.350Z,46.70
2018-09-18T11:36:00.952Z,46.80
2018-09-18T11:39:05.210Z,46.60
2018-09-18T11:42:09.039Z,46.10
2018-09-18T11:45:12.061Z,46.50
2018-09-18T11:48:15.001Z,45.70
2018-09-18T11:51:19.503Z,45.50
2018-09-18T11:54:22.592Z,45.70
2018-09-18T11:57:25.517Z,46.10
2018-09-18T12:00:31.933Z,44.50
2018-09-18T12:03:34.905Z,43.60
2018-09-18T12:06:37.853Z,44.40
2018-09-18T12:09:40.802Z,43.40
2018-09-18T12:12:43.720Z,43.60
2018-09-18T12:15:46.722Z,44.00
2018-09-18T12:18:49.657Z,43.60
2018-09-18T12:21:52.650Z,42.40
2018-09-18T12:24:55.602Z,43.00
2018-09-18T12:27:58.604Z,42.50
2018-09-18T12:31:01.608Z,41.90
2018-09-18T12:34:04.589Z,42.40
2018-09-18T12:37:07.537Z,41.60
2018-09-18T12:40:10.497Z,41.40
2018-09-18T12:43:13.446Z,42.00
2018-09-18T12:46:16.408Z,42.00
2018-09-18T12:49:19.398Z,42.10
2018-09-18T12:52:22.296Z,41.90
2018-09-18T12:55:25.219Z,40.60
2018-09-18T12:58:28.201Z,41.50
2018-09-18T13:01:31.164Z,40.60
2018-09-18T13:04:34.118Z,40.70
2018-09-18T13:07:36.990Z,41.50
2018-09-18T13:10:39.931Z,39.40
2018-09-18T13:13:42.941Z,39.40
2018-09-18T13:16:45.925Z,40.00
2018-09-18T13:19:48.926Z,39.80
2018-09-18T13:22:51.825Z,40.90
2018-09-18T13:25:54.869Z,37.80
2018-09-18T13:28:57.824Z,37.50
2018-09-18T13:32:00.789Z,36.50
2018-09-18T13:35:03.725Z,36.10
2018-09-18T13:38:06.646Z,35.90
2018-09-18T13:41:10.109Z,36.00
2018-09-18T13:44:13.018Z,38.00
2018-09-18T13:47:15.961Z,35.00
2018-09-18T13:50:18.985Z,33.60
2018-09-18T13:53:22.048Z,33.20
2018-09-18T13:56:25.149Z,34.00
2018-09-18T13:59:28.164Z,32.60
2018-09-18T14:02:31.183Z,32.20
2018-09-18T14:05:34.302Z,32.60
2018-09-18T14:08:37.255Z,33.60
2018-09-18T14:11:40.179Z,31.80
2018-09-18T14:14:43.162Z,31.20
2018-09-18T14:17:46.082Z,32.20
2018-09-18T14:20:49.093Z,32.20
2018-09-18T14:23:52.010Z,31.00
2018-09-18T14:26:55.192Z,32.00
2018-09-18T14:29:58.251Z,32.20
2018-09-18T14:33:01.193Z,33.00
2018-09-18T14:36:04.144Z,33.20
2018-09-18T14:39:09.995Z,32.00
2018-09-18T14:42:12.969Z,33.10
2018-09-18T14:45:16.054Z,32.90
2018-09-18T14:48:19.029Z,33.00
2018-09-18T14:51:22.011Z,32.70
2018-09-18T14:54:24.873Z,33.10
2018-09-18T14:57:27.786Z,33.30
2018-09-18T15:00:30.744Z,33.20
2018-09-18T15:03:33.736Z,33.80
2018-09-18T15:06:36.681Z,34.50
2018-09-18T15:09:39.621Z,34.00
2018-09-18T15:12:42.541Z,33.60
2018-09-18T15:15:45.566Z,33.40
2018-09-18T15:18:48.459Z,34.00
2018-09-18T15:21:51.447Z,33.30
2018-09-18T15:24:54.634Z,34.50
2018-09-18T15:27:58.461Z,34.90
2018-09-18T15:31:03.744Z,35.00
2018-09-18T15:34:06.892Z,34.30
2018-09-18T15:37:09.708Z,34.20
2018-09-18T15:40:12.669Z,34.80
2018-09-18T15:43:16.529Z,35.20
2018-09-18T15:46:19.535Z,34.90
2018-09-18T15:49:22.450Z,35.40
2018-09-18T15:52:25.400Z,36.00
2018-09-18T15:55:28.490Z,35.00
2018-09-18T15:58:32.164Z,35.60
2018-09-18T16:01:35.613Z,35.40
2018-09-18T16:04:38.984Z,35.80
2018-09-18T16:07:42.700Z,35.90
2018-09-18T16:10:45.590Z,36.20
2018-09-18T16:13:48.649Z,36.60
2018-09-18T16:16:51.565Z,36.80
2018-09-18T16:19:54.548Z,36.80
2018-09-18T16:22:58.049Z,36.80
2018-09-18T16:26:00.979Z,36.90
2018-09-18T16:29:04.032Z,36.70
2018-09-18T16:32:07.021Z,36.90
2018-09-18T16:35:09.966Z,37.20
2018-09-18T16:38:13.057Z,38.10
2018-09-18T16:41:15.985Z,38.40
2018-09-18T16:44:18.887Z,38.00
2018-09-18T16:47:21.845Z,38.70
2018-09-18T16:50:24.749Z,37.60
2018-09-18T16:53:27.689Z,38.10
2018-09-18T16:56:31.116Z,38.00
2018-09-18T16:59:34.026Z,38.30
2018-09-18T17:02:36.944Z,39.00
2018-09-18T17:05:39.943Z,39.10
2018-09-18T17:08:42.820Z,39.60
2018-09-18T17:11:45.778Z,40.10
2018-09-18T17:14:48.737Z,40.00
2018-09-18T17:17:51.619Z,40.60
2018-09-18T17:20:55.081Z,40.60
2018-09-18T17:23:57.984Z,40.50
2018-09-18T17:27:00.960Z,40.30
2018-09-18T17:30:03.969Z,41.50
2018-09-18T17:33:07.732Z,41.50
2018-09-18T17:36:10.664Z,42.00
2018-09-18T17:39:13.709Z,42.60
2018-09-18T17:42:16.797Z,42.90
2018-09-18T17:45:19.761Z,43.20
2018-09-18T17:48:22.839Z,43.90
2018-09-18T17:51:25.801Z,44.80
2018-09-18T17:54:28.781Z,44.50
2018-09-18T17:57:31.815Z,44.90
2018-09-18T18:00:35.269Z,45.30
2018-09-18T18:03:39.266Z,46.10
2018-09-18T18:06:42.949Z,46.80
2018-09-18T18:09:45.899Z,47.10
2018-09-18T18:12:48.807Z,47.60
2018-09-18T18:15:51.799Z,47.00
2018-09-18T18:18:55.267Z,47.20
2018-09-18T18:21:58.261Z,46.60
2018-09-18T18:25:01.808Z,46.70
2018-09-18T18:28:05.432Z,46.70
2018-09-18T18:31:09.384Z,45.60
2018-09-18T18:34:12.297Z,45.10
2018-09-18T18:37:15.244Z,44.70
2018-09-18T18:40:19.076Z,45.60
2018-09-18T18:43:22.179Z,45.80
2018-09-18T18:46:25.827Z,46.60
2018-09-18T18:49:33.663Z,47.10
2018-09-18T18:52:36.611Z,47.30
2018-09-18T18:55:39.546Z,48.00
2018-09-18T18:58:42.512Z,48.80
2018-09-18T19:01:46.143Z,49.10
2018-09-18T19:04:49.674Z,49.10
2018-09-18T19:07:52.995Z,48.70
2018-09-18T19:10:56.134Z,49.40
2018-09-18T19:13:59.618Z,46.70
2018-09-18T19:17:02.569Z,46.30
2018-09-18T19:20:06.302Z,45.90
2018-09-18T19:23:09.809Z,46.60
2018-09-18T19:26:12.835Z,45.80
2018-09-18T19:29:16.299Z,46.40
2018-09-18T19:32:19.321Z,46.70
2018-09-18T19:35:22.563Z,47.00
2018-09-18T19:38:25.543Z,47.10
2018-09-18T19:41:29.312Z,47.40
2018-09-18T19:44:32.273Z,47.80
2018-09-18T19:47:35.221Z,48.80
2018-09-18T19:50:38.283Z,49.20
2018-09-18T19:53:41.746Z,49.30
2018-09-18T19:56:45.502Z,49.40
2018-09-18T19:59:48.420Z,50.30
2018-09-18T20:02:51.318Z,50.00
2018-09-18T20:05:54.234Z,50.40
2018-09-18T20:08:57.148Z,50.90
2018-09-18T20:12:00.209Z,51.00
2018-09-18T20:15:03.289Z,50.50
2018-09-18T20:18:06.290Z,50.70
2018-09-18T20:21:09.384Z,50.80
2018-09-18T20:24:12.570Z,50.60
2018-09-18T20:27:15.481Z,51.00
2018-09-18T20:30:19.061Z,51.30
2018-09-18T20:33:22.922Z,51.30
2018-09-18T20:36:26.006Z,51.40
2018-09-18T20:39:30.935Z,51.40
2018-09-18T20:42:38.667Z,51.10
2018-09-18T20:45:46.844Z,51.50
2018-09-18T20:48:49.945Z,51.70
2018-09-18T20:51:53.078Z,51.80
2018-09-18T20:54:56.149Z,52.00
2018-09-18T20:57:59.833Z,51.60
2018-09-18T21:01:04.429Z,52.00
2018-09-18T21:04:08.543Z,52.10
2018-09-18T21:07:17.354Z,52.10
2018-09-18T21:10:21.452Z,51.90
2018-09-18T21:13:24.417Z,52.10
2018-09-18T21:16:27.393Z,52.00
2018-09-18T21:19:30.314Z,51.80
2018-09-18T21:22:33.357Z,51.90
2018-09-18T21:26:18.372Z,51.80
2018-09-18T21:29:22.122Z,53.20
2018-09-18T21:32:25.167Z,52.30
2018-09-18T21:35:28.117Z,52.80
2018-09-18T21:38:31.314Z,53.30
2018-09-18T21:41:34.915Z,52.60
2018-09-18T21:44:37.845Z,52.60
2018-09-18T21:47:40.784Z,52.90
2018-09-18T21:50:44.398Z,52.70
2018-09-18T21:53:47.946Z,53.10
2018-09-18T21:56:50.990Z,53.60
2018-09-18T21:59:54.533Z,53.20
2018-09-18T22:02:59.034Z,53.20
2018-09-18T22:06:02.485Z,52.90
2018-09-18T22:09:06.028Z,53.10
2018-09-18T22:12:10.152Z,52.80
2018-09-18T22:15:13.122Z,52.80
2018-09-18T22:18:16.077Z,52.90
2018-09-18T22:21:19.026Z,53.00
2018-09-18T22:24:21.945Z,53.20
2018-09-18T22:27:24.886Z,53.60
2018-09-18T22:30:27.804Z,53.60
2018-09-18T22:33:30.698Z,54.00
2018-09-18T22:36:33.602Z,53.90
2018-09-18T22:39:36.595Z,54.00
2018-09-18T22:42:39.517Z,54.30
2018-09-18T22:45:42.438Z,54.50
2018-09-18T22:48:45.462Z,54.70
2018-09-18T22:51:48.437Z,54.40
2018-09-18T22:54:51.360Z,54.30
2018-09-18T22:57:54.331Z,54.40
2018-09-18T23:00:57.275Z,55.40
2018-09-18T23:04:00.184Z,54.60
2018-09-18T23:07:03.185Z,54.80
2018-09-18T23:10:06.143Z,55.50
2018-09-18T23:13:09.095Z,55.60
2018-09-18T23:16:12.065Z,56.20
2018-09-18T23:19:15.076Z,55.90
2018-09-18T23:22:18.011Z,56.00
2018-09-18T23:25:20.921Z,55.80
2018-09-18T23:28:23.872Z,55.70
2018-09-18T23:31:26.864Z,55.40
2018-09-18T23:34:29.815Z,55.50
2018-09-18T23:37:32.777Z,55.30
2018-09-18T23:40:35.714Z,55.00
2018-09-18T23:43:38.657Z,55.20
2018-09-18T23:46:41.566Z,55.40
2018-09-18T23:49:44.507Z,56.00
2018-09-18T23:52:47.482Z,55.80
2018-09-18T23:55:50.381Z,56.00
2018-09-18T23:58:53.570Z,56.20
